createdAt,value
2023-03-12T00:00:54.626Z,4.95
2023-03-12T00:03:22.139Z,3.72
2023-03-12T00:05:49.327Z,7.80
2023-03-12T00:08:16.483Z,4.87
2023-03-12T00:10:43.974Z,7.12
2023-03-12T00:13:11.144Z,5.80
2023-03-12T00:15:39.395Z,5.50
2023-03-12T00:18:07.049Z,4.43
2023-03-12T00:20:34.229Z,5.15
2023-03-12T00:23:01.446Z,4.05
2023-03-12T00:25:28.973Z,6.68
2023-03-12T00:27:56.243Z,7.75
2023-03-12T00:30:23.362Z,7.45
2023-03-12T00:32:50.817Z,8.05
2023-03-12T00:35:18.094Z,8.13
2023-03-12T00:37:45.179Z,5.18
2023-03-12T00:40:13.752Z,3.80
2023-03-12T00:42:40.903Z,5.75
2023-03-12T00:45:08.393Z,5.28
2023-03-12T00:47:35.848Z,5.97
2023-03-12T00:50:03.446Z,4.50
2023-03-12T00:52:30.587Z,4.68
2023-03-12T00:54:58.934Z,5.90
2023-03-12T00:57:26.321Z,4.10
2023-03-12T00:59:53.533Z,6.05
2023-03-12T01:02:21.393Z,5.32
2023-03-12T01:04:48.552Z,5.07
2023-03-12T01:07:15.588Z,5.32
2023-03-12T01:09:43.021Z,5.47
2023-03-12T01:12:10.284Z,6.15
2023-03-12T01:14:37.419Z,6.25
2023-03-12T01:17:04.813Z,4.70
2023-03-12T01:19:31.950Z,6.90
2023-03-12T01:21:59.142Z,4.82
2023-03-12T01:24:26.582Z,5.37
2023-03-12T01:26:53.671Z,5.45
2023-03-12T01:29:20.875Z,5.37
2023-03-12T01:31:48.496Z,5.37
2023-03-12T01:34:15.654Z,5.22
2023-03-12T01:36:42.923Z,4.62
2023-03-12T01:39:10.457Z,4.18
2023-03-12T01:41:37.753Z,5.85
2023-03-12T01:44:05.075Z,5.62
2023-03-12T01:46:43.301Z,5.82
2023-03-12T01:49:30.023Z,4.40
2023-03-12T01:51:57.481Z,5.62
2023-03-12T01:54:35.031Z,5.85
2023-03-12T01:57:04.434Z,5.45
2023-03-12T01:59:37.104Z,5.65
2023-03-12T02:02:05.668Z,5.70
2023-03-12T02:04:33.398Z,6.35
2023-03-12T02:07:14.651Z,8.38
2023-03-12T02:09:44.024Z,5.37
2023-03-12T02:12:11.245Z,6.07
2023-03-12T02:14:38.757Z,5.70
2023-03-12T02:17:06.840Z,5.93
2023-03-12T02:19:52.404Z,8.15
2023-03-12T02:22:21.110Z,6.43
2023-03-12T02:24:54.335Z,8.13
2023-03-12T02:27:22.538Z,6.33
2023-03-12T02:29:50.054Z,6.45
2023-03-12T02:32:23.597Z,5.90
2023-03-12T02:34:51.073Z,6.40
2023-03-12T02:37:19.164Z,7.95
2023-03-12T02:40:14.389Z,6.62
2023-03-12T02:45:09.573Z,6.62
2023-03-12T02:47:37.264Z,6.20
2023-03-12T02:50:05.477Z,6.68
2023-03-12T02:52:35.628Z,6.22
2023-03-12T02:55:02.996Z,8.27
2023-03-12T02:57:30.447Z,8.23
2023-03-12T02:59:57.622Z,7.35
2023-03-12T03:02:24.785Z,10.02
2023-03-12T03:04:52.306Z,7.28
2023-03-12T03:07:19.533Z,7.03
2023-03-12T03:09:46.710Z,6.62
2023-03-12T03:12:14.087Z,6.25
2023-03-12T03:14:41.906Z,6.62
2023-03-12T03:17:09.064Z,8.65
2023-03-12T03:19:36.427Z,7.95
2023-03-12T03:22:04.180Z,8.68
2023-03-12T03:24:31.444Z,8.55
2023-03-12T03:26:58.844Z,8.40
2023-03-12T03:29:25.923Z,7.32
2023-03-12T03:31:53.614Z,9.20
2023-03-12T03:34:21.232Z,8.23
2023-03-12T03:36:48.321Z,7.93
2023-03-12T03:39:15.641Z,8.32
2023-03-12T03:41:43.153Z,8.52
2023-03-12T03:44:10.448Z,7.93
2023-03-12T03:46:37.793Z,9.02
2023-03-12T03:49:06.348Z,6.30
2023-03-12T03:51:33.555Z,9.32
2023-03-12T03:54:01.180Z,9.25
2023-03-12T03:56:29.012Z,9.98
2023-03-12T03:58:58.204Z,7.28
2023-03-12T04:01:26.429Z,7.72
2023-03-12T04:03:55.523Z,9.43
2023-03-12T04:06:22.725Z,7.15
2023-03-12T04:08:49.878Z,8.40
2023-03-12T04:11:20.674Z,8.15
2023-03-12T04:13:48.816Z,7.10
2023-03-12T04:16:17.493Z,8.90
2023-03-12T04:18:45.191Z,12.25
2023-03-12T04:21:13.953Z,10.75
2023-03-12T04:23:41.502Z,9.00
2023-03-12T04:26:09.562Z,11.12
2023-03-12T04:28:37.219Z,7.70
2023-03-12T04:31:08.804Z,12.23
2023-03-12T04:33:38.239Z,8.35
2023-03-12T04:36:06.514Z,11.30
2023-03-12T04:38:34.416Z,10.98
2023-03-12T04:41:08.209Z,9.73
2023-03-12T04:43:36.126Z,9.35
2023-03-12T04:46:03.978Z,9.55
2023-03-12T04:48:31.150Z,10.05
2023-03-12T04:50:58.417Z,11.23
2023-03-12T04:53:26.056Z,9.25
2023-03-12T04:55:53.604Z,8.68
2023-03-12T04:58:21.370Z,11.50
2023-03-12T05:00:50.375Z,8.52
2023-03-12T05:03:18.368Z,12.52
2023-03-12T05:05:45.799Z,10.07
2023-03-12T05:08:13.645Z,11.05
2023-03-12T05:10:40.913Z,8.93
2023-03-12T05:13:19.410Z,14.30
2023-03-12T05:15:47.684Z,9.85
2023-03-12T05:18:15.298Z,10.13
2023-03-12T05:20:42.501Z,10.73
2023-03-12T05:23:10.322Z,12.00
2023-03-12T05:25:41.369Z,11.40
2023-03-12T05:28:08.828Z,10.95
2023-03-12T05:30:36.792Z,11.63
2023-03-12T05:33:04.091Z,10.40
2023-03-12T05:35:31.835Z,11.35
2023-03-12T05:37:59.356Z,10.35
2023-03-12T05:40:26.474Z,11.70
2023-03-12T05:42:53.796Z,13.23
2023-03-12T05:45:21.596Z,10.60
2023-03-12T05:47:49.397Z,15.32
2023-03-12T05:52:44.802Z,12.02
2023-03-12T05:55:12.374Z,11.18
2023-03-12T05:57:39.563Z,10.25
2023-03-12T06:00:08.022Z,14.07
2023-03-12T06:02:40.424Z,10.85
2023-03-12T06:05:10.611Z,12.60
2023-03-12T06:07:38.014Z,12.23
2023-03-12T06:10:05.656Z,9.40
2023-03-12T06:12:33.284Z,12.15
2023-03-12T06:15:00.985Z,12.88
2023-03-12T06:17:29.929Z,11.43
2023-03-12T06:19:57.860Z,11.45
2023-03-12T06:22:25.490Z,12.27
2023-03-12T06:24:52.632Z,9.23
2023-03-12T06:27:20.130Z,9.43
2023-03-12T06:29:47.257Z,12.95
2023-03-12T06:32:18.485Z,18.48
2023-03-12T06:34:45.993Z,10.85
2023-03-12T06:37:13.101Z,8.85
2023-03-12T06:39:40.274Z,11.95
2023-03-12T06:42:07.950Z,12.13
2023-03-12T06:44:35.062Z,10.35
2023-03-12T06:47:02.126Z,8.80
2023-03-12T06:49:32.249Z,8.43
2023-03-12T06:51:59.429Z,11.57
2023-03-12T06:54:26.895Z,9.02
2023-03-12T06:56:54.318Z,10.95
2023-03-12T06:59:22.077Z,9.85
2023-03-12T07:01:49.404Z,7.85
2023-03-12T07:04:16.900Z,10.10
2023-03-12T07:06:44.154Z,9.80
2023-03-12T07:09:11.236Z,10.10
2023-03-12T07:11:38.613Z,9.90
2023-03-12T07:14:05.737Z,9.77
2023-03-12T07:16:32.895Z,9.32
2023-03-12T07:19:00.659Z,12.63
2023-03-12T07:21:28.883Z,7.03
2023-03-12T07:23:55.916Z,9.43
2023-03-12T07:26:23.660Z,12.18
2023-03-12T07:28:50.727Z,8.07
2023-03-12T07:31:17.832Z,7.70
2023-03-12T07:33:45.397Z,9.27
2023-03-12T07:36:12.730Z,7.87
2023-03-12T07:38:39.922Z,9.05
2023-03-12T07:41:07.309Z,14.77
2023-03-12T07:43:34.408Z,8.73
2023-03-12T07:46:01.726Z,10.82
2023-03-12T07:48:29.400Z,9.65
2023-03-12T07:50:56.531Z,10.25
2023-03-12T07:53:23.605Z,11.32
2023-03-12T07:55:51.212Z,8.57
2023-03-12T07:58:18.487Z,7.72
2023-03-12T08:00:45.711Z,13.75
2023-03-12T08:03:13.771Z,10.13
2023-03-12T08:05:41.653Z,9.13
2023-03-12T08:08:09.278Z,8.93
2023-03-12T08:10:37.183Z,13.02
2023-03-12T08:13:04.488Z,10.38
2023-03-12T08:15:31.754Z,10.35
2023-03-12T08:17:59.690Z,10.55
2023-03-12T08:20:26.924Z,10.63
2023-03-12T08:22:54.112Z,10.48
2023-03-12T08:25:21.690Z,8.20
2023-03-12T08:27:48.861Z,9.45
2023-03-12T08:30:19.155Z,10.38
2023-03-12T08:32:46.759Z,7.57
2023-03-12T08:35:13.877Z,11.48
2023-03-12T08:37:41.574Z,7.57
2023-03-12T08:40:13.258Z,7.85
2023-03-12T08:42:41.982Z,7.00
2023-03-12T08:45:11.171Z,7.35
2023-03-12T08:47:41.535Z,8.50
2023-03-12T08:50:11.289Z,8.60
2023-03-12T08:52:38.890Z,6.60
2023-03-12T08:55:06.517Z,6.12
2023-03-12T08:57:33.711Z,7.75
2023-03-12T09:00:01.279Z,7.90
2023-03-12T09:02:28.690Z,8.95
2023-03-12T09:04:55.805Z,9.30
2023-03-12T09:07:23.501Z,7.57
2023-03-12T09:09:50.714Z,8.15
2023-03-12T09:12:18.379Z,8.90
2023-03-12T09:17:32.890Z,10.27
2023-03-12T09:20:00.831Z,8.77
2023-03-12T09:22:30.292Z,8.75
2023-03-12T09:24:57.395Z,6.90
2023-03-12T09:27:24.881Z,8.85
2023-03-12T09:30:00.127Z,7.05
2023-03-12T09:32:28.928Z,6.30
2023-03-12T09:34:56.110Z,7.85
2023-03-12T09:37:24.334Z,6.12
2023-03-12T09:39:52.545Z,7.37
2023-03-12T09:42:25.711Z,6.22
2023-03-12T09:44:55.076Z,7.17
2023-03-12T09:47:32.000Z,5.65
2023-03-12T09:50:02.050Z,6.93
2023-03-12T09:52:50.617Z,6.78
2023-03-12T09:55:20.440Z,5.37
2023-03-12T09:57:51.278Z,5.28
2023-03-12T10:00:21.953Z,5.28
2023-03-12T10:03:23.707Z,3.72
2023-03-12T10:06:12.155Z,6.25
2023-03-12T10:09:01.257Z,4.35
2023-03-12T10:11:33.015Z,13.80
2023-03-12T10:14:23.732Z,9.32
2023-03-12T10:17:03.338Z,4.12
2023-03-12T10:19:52.222Z,4.82
2023-03-12T10:22:37.208Z,6.70
2023-03-12T10:25:07.583Z,12.43
2023-03-12T10:27:37.169Z,5.50
2023-03-12T10:30:24.362Z,6.95
2023-03-12T10:32:58.546Z,8.65
2023-03-12T10:37:54.300Z,10.02
2023-03-12T10:40:27.996Z,7.45
2023-03-12T10:42:55.667Z,28.70
2023-03-12T10:45:30.808Z,4.37
2023-03-12T10:48:08.679Z,16.30
2023-03-12T10:50:40.555Z,6.00
2023-03-12T10:53:24.636Z,7.75
2023-03-12T10:55:58.749Z,6.57
2023-03-12T11:00:58.797Z,5.72
2023-03-12T11:03:26.309Z,8.57
2023-03-12T11:05:55.694Z,5.15
2023-03-12T11:08:37.106Z,6.55
2023-03-12T11:11:05.564Z,4.90
2023-03-12T11:13:40.816Z,3.42
2023-03-12T11:16:17.274Z,5.22
2023-03-12T11:18:59.947Z,4.93
2023-03-12T11:21:28.624Z,4.65
2023-03-12T11:23:58.761Z,4.90
2023-03-12T11:26:50.091Z,5.05
2023-03-12T11:29:26.672Z,3.72
2023-03-12T11:32:17.379Z,3.87
2023-03-12T11:34:49.381Z,2.78
2023-03-12T11:37:53.721Z,4.40
2023-03-12T11:40:33.320Z,3.75
2023-03-12T11:43:24.078Z,5.65
2023-03-12T11:46:07.891Z,4.75
2023-03-12T11:48:46.689Z,10.13
2023-03-12T11:51:37.857Z,6.37
2023-03-12T11:54:14.062Z,4.37
2023-03-12T11:56:52.032Z,7.20
2023-03-12T11:59:40.137Z,5.53
2023-03-12T12:02:39.355Z,6.45
2023-03-12T12:05:22.626Z,3.72
2023-03-12T12:08:11.734Z,6.50
2023-03-12T12:11:13.209Z,3.67
2023-03-12T12:14:19.047Z,4.43
2023-03-12T12:16:56.050Z,3.85
2023-03-12T12:19:29.876Z,5.65
2023-03-12T12:22:03.284Z,2.37
2023-03-12T12:24:55.102Z,4.35
2023-03-12T12:27:26.542Z,2.85
2023-03-12T12:30:22.282Z,3.78
2023-03-12T12:33:09.330Z,4.12
2023-03-12T12:35:40.905Z,5.95
2023-03-12T12:38:30.276Z,3.83
2023-03-12T12:41:08.319Z,4.50
2023-03-12T12:43:39.732Z,7.40
2023-03-12T12:46:29.114Z,5.72
2023-03-12T12:49:00.943Z,4.03
2023-03-12T12:51:33.935Z,5.93
2023-03-12T12:54:20.190Z,4.03
2023-03-12T12:56:59.293Z,3.53
2023-03-12T12:59:50.565Z,5.32
2023-03-12T13:02:20.936Z,3.80
2023-03-12T13:04:48.964Z,3.85
2023-03-12T13:07:16.051Z,4.37
2023-03-12T13:09:46.007Z,4.30
2023-03-12T13:12:22.326Z,6.15
2023-03-12T13:14:50.718Z,4.70
2023-03-12T13:17:56.186Z,3.95
2023-03-12T13:20:47.259Z,2.60
2023-03-12T13:23:26.758Z,3.55
2023-03-12T13:26:20.794Z,3.75
2023-03-12T13:29:05.991Z,4.55
2023-03-12T13:31:39.029Z,3.37
2023-03-12T13:34:06.488Z,5.43
2023-03-12T13:36:36.653Z,4.05
2023-03-12T13:39:06.516Z,2.87
2023-03-12T13:41:40.716Z,3.55
2023-03-12T13:44:22.978Z,3.22
2023-03-12T13:47:02.521Z,2.90
2023-03-12T13:49:41.728Z,6.03
2023-03-12T13:52:25.506Z,16.75
2023-03-12T13:55:14.668Z,3.45
2023-03-12T13:57:47.940Z,3.95
2023-03-12T14:00:28.188Z,4.45
2023-03-12T14:03:00.661Z,10.70
2023-03-12T14:05:29.091Z,4.15
2023-03-12T14:08:02.469Z,8.63
2023-03-12T14:10:47.989Z,5.28
2023-03-12T14:13:28.827Z,4.25
2023-03-12T14:16:32.225Z,3.35
2023-03-12T14:18:59.931Z,27.98
2023-03-12T14:21:33.497Z,2.70
2023-03-12T14:24:01.871Z,3.70
2023-03-12T14:26:33.206Z,3.85
2023-03-12T14:29:04.615Z,4.12
2023-03-12T14:31:32.268Z,21.40
2023-03-12T14:34:02.043Z,3.15
2023-03-12T14:36:38.227Z,4.82
2023-03-12T14:39:41.737Z,2.90
2023-03-12T14:42:10.058Z,3.20
2023-03-12T14:44:39.447Z,5.93
2023-03-12T14:47:10.229Z,5.35
2023-03-12T14:49:45.903Z,4.45
2023-03-12T14:52:14.839Z,7.10
2023-03-12T14:54:53.998Z,2.78
2023-03-12T14:57:25.095Z,3.03
2023-03-12T14:59:57.068Z,3.75
2023-03-12T15:02:25.277Z,2.80
2023-03-12T15:04:55.583Z,8.32
2023-03-12T15:07:31.521Z,5.57
2023-03-12T15:09:59.012Z,9.70
2023-03-12T15:12:29.785Z,11.10
2023-03-12T15:15:03.065Z,4.97
2023-03-12T15:17:31.850Z,6.68
2023-03-12T15:19:59.450Z,2.92
2023-03-12T15:22:27.897Z,7.57
2023-03-12T15:24:55.379Z,4.93
2023-03-12T15:27:28.704Z,3.97
2023-03-12T15:29:58.076Z,3.92
2023-03-12T15:32:26.356Z,4.22
2023-03-12T15:34:56.481Z,4.97
2023-03-12T15:37:34.917Z,5.37
2023-03-12T15:40:06.614Z,4.70
2023-03-12T15:42:46.923Z,9.50
2023-03-12T15:45:26.353Z,10.02
2023-03-12T15:47:54.334Z,8.63
2023-03-12T15:50:34.338Z,14.05
2023-03-12T15:53:26.515Z,4.82
2023-03-12T15:55:59.117Z,4.37
2023-03-12T15:58:34.622Z,4.35
2023-03-12T16:01:13.321Z,10.50
2023-03-12T16:03:42.523Z,8.20
2023-03-12T16:06:15.118Z,9.65
2023-03-12T16:08:51.110Z,39.47
2023-03-12T16:11:24.155Z,65.82
2023-03-12T16:13:54.897Z,52.88
2023-03-12T16:16:22.019Z,17.85
2023-03-12T16:18:49.166Z,21.37
2023-03-12T16:21:16.558Z,30.08
2023-03-12T16:23:43.631Z,45.20
2023-03-12T16:26:11.958Z,18.58
2023-03-12T16:28:39.780Z,30.10
2023-03-12T16:31:16.403Z,16.08
2023-03-12T16:33:44.864Z,27.42
2023-03-12T16:36:14.084Z,78.18
2023-03-12T16:38:42.112Z,84.20
2023-03-12T16:41:28.771Z,61.37
2023-03-12T16:43:56.863Z,51.88
2023-03-12T16:46:27.304Z,42.05
2023-03-12T16:48:54.557Z,24.95
2023-03-12T16:51:22.130Z,63.80
2023-03-12T16:54:05.312Z,41.40
2023-03-12T16:56:35.058Z,88.85
2023-03-12T16:59:06.194Z,24.85
2023-03-12T17:01:33.374Z,42.88
2023-03-12T17:04:00.671Z,177.87
2023-03-12T17:06:28.140Z,114.50
2023-03-12T17:08:55.372Z,38.05
2023-03-12T17:11:25.325Z,55.00
2023-03-12T17:13:58.700Z,36.30
2023-03-12T17:16:25.973Z,40.90
2023-03-12T17:18:53.739Z,51.25
2023-03-12T17:21:21.659Z,40.83
2023-03-12T17:23:50.457Z,64.70
2023-03-12T17:26:18.639Z,142.70
2023-03-12T17:28:45.737Z,97.07
2023-03-12T17:31:12.965Z,63.65
2023-03-12T17:33:40.423Z,41.08
2023-03-12T17:36:09.298Z,70.93
2023-03-12T17:38:36.658Z,29.98
2023-03-12T17:41:09.364Z,41.20
2023-03-12T17:43:41.827Z,44.30
2023-03-12T17:46:09.818Z,73.15
2023-03-12T17:48:37.016Z,58.95
2023-03-12T17:51:09.971Z,49.78
2023-03-12T17:53:39.541Z,40.12
2023-03-12T17:56:07.443Z,64.20
2023-03-12T17:58:34.540Z,56.33
2023-03-12T18:01:02.058Z,27.50
2023-03-12T18:03:29.693Z,22.55
2023-03-12T18:05:56.874Z,22.00
2023-03-12T18:08:23.946Z,21.10
2023-03-12T18:10:51.349Z,30.05
2023-03-12T18:13:18.517Z,34.17
2023-03-12T18:15:54.296Z,35.70
2023-03-12T18:18:22.468Z,46.80
2023-03-12T18:20:49.973Z,35.13
2023-03-12T18:23:17.508Z,30.27
2023-03-12T18:25:46.084Z,37.67
2023-03-12T18:28:14.131Z,46.55
2023-03-12T18:30:41.296Z,62.75
2023-03-12T18:33:08.698Z,72.28
2023-03-12T18:35:35.864Z,57.67
2023-03-12T18:38:02.998Z,47.25
2023-03-12T18:40:32.787Z,35.03
2023-03-12T18:43:00.435Z,62.03
2023-03-12T18:45:27.972Z,62.35
2023-03-12T18:47:55.759Z,142.55
2023-03-12T18:50:22.950Z,55.95
2023-03-12T18:52:50.062Z,34.72
2023-03-12T18:55:17.723Z,99.65
2023-03-12T18:57:47.198Z,51.92
2023-03-12T19:00:17.717Z,43.87
2023-03-12T19:02:48.415Z,76.95
2023-03-12T19:05:16.449Z,80.50
2023-03-12T19:07:44.028Z,38.65
2023-03-12T19:10:12.299Z,32.90
2023-03-12T19:12:51.661Z,38.15
2023-03-12T19:15:21.308Z,38.08
2023-03-12T19:17:48.408Z,45.03
2023-03-12T19:20:15.731Z,44.42
2023-03-12T19:22:43.684Z,55.30
2023-03-12T19:25:10.823Z,63.47
2023-03-12T19:27:37.871Z,34.08
2023-03-12T19:30:05.858Z,59.03
2023-03-12T19:32:42.335Z,48.50
2023-03-12T19:35:12.201Z,111.35
2023-03-12T19:37:39.302Z,95.05
2023-03-12T19:40:07.131Z,54.92
2023-03-12T19:42:34.521Z,25.25
2023-03-12T19:45:01.632Z,29.23
2023-03-12T19:47:28.919Z,31.15
2023-03-12T19:49:56.310Z,23.10
2023-03-12T19:52:23.622Z,23.27
2023-03-12T19:55:03.418Z,32.80
2023-03-12T19:57:32.682Z,23.20
2023-03-12T19:59:59.841Z,22.90
2023-03-12T20:02:27.165Z,27.37
2023-03-12T20:04:55.438Z,32.40
2023-03-12T20:07:22.800Z,32.33
2023-03-12T20:09:50.196Z,32.25
2023-03-12T20:12:17.567Z,40.58
2023-03-12T20:14:44.887Z,90.97
2023-03-12T20:17:12.318Z,32.35
2023-03-12T20:19:39.914Z,30.58
2023-03-12T20:22:07.516Z,25.42
2023-03-12T20:24:35.279Z,53.83
2023-03-12T20:27:03.856Z,31.20
2023-03-12T20:29:30.971Z,24.05
2023-03-12T20:31:58.168Z,47.78
2023-03-12T20:34:25.874Z,43.13
2023-03-12T20:36:52.966Z,32.72
2023-03-12T20:39:20.130Z,22.33
2023-03-12T20:41:49.132Z,30.65
2023-03-12T20:44:16.987Z,21.10
2023-03-12T20:46:44.455Z,22.45
2023-03-12T20:49:11.941Z,29.98
2023-03-12T20:51:40.562Z,26.37
2023-03-12T20:54:07.668Z,35.13
2023-03-12T20:56:35.574Z,33.63
2023-03-12T20:59:02.712Z,59.38
2023-03-12T21:01:29.940Z,108.65
2023-03-12T21:03:57.872Z,24.67
2023-03-12T21:06:25.264Z,21.17
2023-03-12T21:08:52.333Z,22.90
2023-03-12T21:11:19.749Z,20.20
2023-03-12T21:13:47.009Z,21.50
2023-03-12T21:16:14.248Z,27.67
2023-03-12T21:18:41.813Z,18.02
2023-03-12T21:21:09.289Z,14.27
2023-03-12T21:23:36.857Z,19.58
2023-03-12T21:26:09.070Z,20.35
2023-03-12T21:28:36.611Z,20.88
2023-03-12T21:31:05.913Z,32.92
2023-03-12T21:33:33.429Z,24.52
2023-03-12T21:36:04.079Z,14.80
2023-03-12T21:38:31.681Z,22.02
2023-03-12T21:41:04.953Z,23.05
2023-03-12T21:43:32.415Z,26.02
2023-03-12T21:46:07.106Z,32.83
2023-03-12T21:48:35.327Z,27.98
2023-03-12T21:51:07.177Z,22.85
2023-03-12T21:53:35.633Z,22.52
2023-03-12T21:56:03.874Z,34.25
2023-03-12T21:58:31.917Z,27.85
2023-03-12T22:01:11.369Z,27.98
2023-03-12T22:03:39.751Z,31.05
2023-03-12T22:06:07.506Z,28.50
2023-03-12T22:08:35.312Z,32.10
2023-03-12T22:11:03.319Z,45.70
2023-03-12T22:13:30.654Z,59.05
2023-03-12T22:16:03.354Z,41.55
2023-03-12T22:18:30.866Z,46.50
2023-03-12T22:21:01.180Z,52.50
2023-03-12T22:23:28.651Z,44.67
2023-03-12T22:25:56.515Z,53.38
2023-03-12T22:28:25.629Z,46.67
2023-03-12T22:31:00.941Z,55.90
2023-03-12T22:33:29.054Z,53.47
2023-03-12T22:35:56.792Z,48.87
2023-03-12T22:38:24.211Z,40.88
2023-03-12T22:40:53.166Z,49.38
2023-03-12T22:43:22.218Z,50.85
2023-03-12T22:45:53.782Z,44.95
2023-03-12T22:48:21.207Z,44.83
2023-03-12T22:50:54.761Z,55.05
2023-03-12T22:53:22.306Z,59.90
2023-03-12T22:56:03.476Z,55.05
2023-03-12T22:58:31.088Z,52.78
2023-03-12T23:01:05.923Z,43.95
2023-03-12T23:03:34.807Z,44.80
2023-03-12T23:06:02.597Z,40.83
2023-03-12T23:08:30.451Z,21.85
2023-03-12T23:11:00.045Z,12.75
2023-03-12T23:13:28.772Z,22.87
2023-03-12T23:16:01.459Z,19.52
2023-03-12T23:18:29.163Z,36.90
2023-03-12T23:21:05.318Z,36.22
2023-03-12T23:23:33.158Z,28.92
2023-03-12T23:26:01.354Z,13.90
2023-03-12T23:28:29.505Z,20.60
2023-03-12T23:31:02.075Z,8.82
2023-03-12T23:33:30.218Z,8.75
2023-03-12T23:36:00.388Z,7.60
2023-03-12T23:38:28.876Z,9.95
2023-03-12T23:41:19.932Z,10.48
2023-03-12T23:43:47.911Z,8.68
2023-03-12T23:46:17.125Z,13.57
2023-03-12T23:48:45.677Z,10.48
2023-03-12T23:51:15.787Z,10.05
2023-03-12T23:53:45.365Z,13.50
2023-03-12T23:56:18.128Z,9.32
2023-03-12T23:58:45.888Z,11.57
